sensor_id;sensor_type;location;lat;lon;timestamp;pressure;altitude;pressure_sealevel;temperature;humidity
12949;BME280;6539;49.476;8.484;2022-07-23T00:00:15;100368.38;;;28.28;42.37
12949;BME280;6539;49.476;8.484;2022-07-23T00:02:41;100378.06;;;28.32;42.06
12949;BME280;6539;49.476;8.484;2022-07-23T00:05:08;100380.91;;;28.32;42.24
12949;BME280;6539;49.476;8.484;2022-07-23T00:07:36;100391.44;;;28.32;42.30
12949;BME280;6539;49.476;8.484;2022-07-23T00:10:03;100397.84;;;28.32;42.35
12949;BME280;6539;49.476;8.484;2022-07-23T00:12:32;100399.66;;;28.30;42.26
12949;BME280;6539;49.476;8.484;2022-07-23T00:15:00;100397.81;;;28.38;42.04
12949;BME280;6539;49.476;8.484;2022-07-23T00:17:26;100398.03;;;28.40;42.03
12949;BME280;6539;49.476;8.484;2022-07-23T00:19:52;100386.50;;;28.38;42.07
12949;BME280;6539;49.476;8.484;2022-07-23T00:22:21;100368.09;;;28.31;42.11
12949;BME280;6539;49.476;8.484;2022-07-23T00:24:49;100367.63;;;28.27;42.34
12949;BME280;6539;49.476;8.484;2022-07-23T00:27:15;100362.47;;;28.26;42.51
12949;BME280;6539;49.476;8.484;2022-07-23T00:29:43;100370.19;;;28.25;42.81
12949;BME280;6539;49.476;8.484;2022-07-23T00:32:11;100375.03;;;28.30;42.37
12949;BME280;6539;49.476;8.484;2022-07-23T00:34:39;100383.25;;;28.28;42.40
12949;BME280;6539;49.476;8.484;2022-07-23T00:37:10;100380.28;;;28.21;42.40
12949;BME280;6539;49.476;8.484;2022-07-23T00:39:35;100366.16;;;28.21;42.37
12949;BME280;6539;49.476;8.484;2022-07-23T00:42:03;100363.13;;;28.13;42.57
12949;BME280;6539;49.476;8.484;2022-07-23T00:44:29;100362.94;;;28.06;43.11
12949;BME280;6539;49.476;8.484;2022-07-23T00:46:58;100362.19;;;28.05;42.82
12949;BME280;6539;49.476;8.484;2022-07-23T00:49:28;100371.47;;;28.00;43.13
12949;BME280;6539;49.476;8.484;2022-07-23T00:51:55;100365.03;;;28.00;43.80
12949;BME280;6539;49.476;8.484;2022-07-23T00:54:26;100373.78;;;27.96;43.11
12949;BME280;6539;49.476;8.484;2022-07-23T00:56:55;100384.59;;;27.92;43.40
12949;BME280;6539;49.476;8.484;2022-07-23T00:59:20;100374.56;;;27.91;43.20
12949;BME280;6539;49.476;8.484;2022-07-23T01:01:47;100383.13;;;27.80;43.83
12949;BME280;6539;49.476;8.484;2022-07-23T01:04:17;100378.78;;;27.79;44.06
12949;BME280;6539;49.476;8.484;2022-07-23T01:06:44;100393.47;;;27.72;44.58
12949;BME280;6539;49.476;8.484;2022-07-23T01:09:11;100400.41;;;27.71;44.17
12949;BME280;6539;49.476;8.484;2022-07-23T01:11:37;100406.25;;;27.78;44.02
12949;BME280;6539;49.476;8.484;2022-07-23T01:14:17;100409.31;;;27.80;44.07
12949;BME280;6539;49.476;8.484;2022-07-23T01:16:46;100398.00;;;27.80;43.88
12949;BME280;6539;49.476;8.484;2022-07-23T01:19:16;100400.66;;;27.73;44.49
12949;BME280;6539;49.476;8.484;2022-07-23T01:21:46;100388.09;;;27.68;44.48
12949;BME280;6539;49.476;8.484;2022-07-23T01:24:14;100395.81;;;27.68;44.20
12949;BME280;6539;49.476;8.484;2022-07-23T01:26:43;100394.00;;;27.65;44.86
12949;BME280;6539;49.476;8.484;2022-07-23T01:29:10;100383.03;;;27.61;44.88
12949;BME280;6539;49.476;8.484;2022-07-23T01:31:39;100379.19;;;27.59;44.45
12949;BME280;6539;49.476;8.484;2022-07-23T01:34:08;100373.31;;;27.57;44.87
12949;BME280;6539;49.476;8.484;2022-07-23T01:36:37;100370.25;;;27.55;44.77
12949;BME280;6539;49.476;8.484;2022-07-23T01:39:07;100375.66;;;27.53;44.82
12949;BME280;6539;49.476;8.484;2022-07-23T01:41:34;100381.53;;;27.55;44.93
12949;BME280;6539;49.476;8.484;2022-07-23T01:44:06;100378.19;;;27.56;44.81
12949;BME280;6539;49.476;8.484;2022-07-23T01:46:38;100378.72;;;27.55;44.75
12949;BME280;6539;49.476;8.484;2022-07-23T01:49:04;100372.59;;;27.51;44.84
12949;BME280;6539;49.476;8.484;2022-07-23T01:51:30;100379.31;;;27.42;45.28
12949;BME280;6539;49.476;8.484;2022-07-23T01:53:56;100386.25;;;27.36;45.23
12949;BME280;6539;49.476;8.484;2022-07-23T01:56:24;100397.50;;;27.41;44.90
12949;BME280;6539;49.476;8.484;2022-07-23T01:58:50;100397.75;;;27.43;44.77
12949;BME280;6539;49.476;8.484;2022-07-23T02:01:21;100389.56;;;27.40;45.28
12949;BME280;6539;49.476;8.484;2022-07-23T02:03:49;100381.88;;;27.35;45.44
12949;BME280;6539;49.476;8.484;2022-07-23T02:06:19;100374.50;;;27.26;45.13
12949;BME280;6539;49.476;8.484;2022-07-23T02:08:47;100388.09;;;27.22;45.55
12949;BME280;6539;49.476;8.484;2022-07-23T02:11:13;100387.59;;;27.24;45.61
12949;BME280;6539;49.476;8.484;2022-07-23T02:13:41;100376.81;;;27.28;45.12
12949;BME280;6539;49.476;8.484;2022-07-23T02:16:07;100382.19;;;27.37;44.96
12949;BME280;6539;49.476;8.484;2022-07-23T02:18:35;100374.22;;;27.35;45.22
12949;BME280;6539;49.476;8.484;2022-07-23T02:21:03;100374.22;;;27.30;45.15
12949;BME280;6539;49.476;8.484;2022-07-23T02:23:29;100379.94;;;27.18;45.52
12949;BME280;6539;49.476;8.484;2022-07-23T02:25:55;100376.63;;;27.14;45.59
12949;BME280;6539;49.476;8.484;2022-07-23T02:28:25;100387.66;;;27.07;45.92
12949;BME280;6539;49.476;8.484;2022-07-23T02:30:51;100380.50;;;27.06;46.23
12949;BME280;6539;49.476;8.484;2022-07-23T02:33:17;100386.41;;;27.02;46.11
12949;BME280;6539;49.476;8.484;2022-07-23T02:35:42;100386.66;;;27.04;46.07
12949;BME280;6539;49.476;8.484;2022-07-23T02:38:08;100383.59;;;27.02;45.79
12949;BME280;6539;49.476;8.484;2022-07-23T02:40:34;100379.00;;;26.94;46.09
12949;BME280;6539;49.476;8.484;2022-07-23T02:43:00;100379.03;;;26.88;46.68
12949;BME280;6539;49.476;8.484;2022-07-23T02:45:26;100379.06;;;26.83;46.59
12949;BME280;6539;49.476;8.484;2022-07-23T02:47:53;100379.31;;;26.79;46.67
12949;BME280;6539;49.476;8.484;2022-07-23T02:50:20;100379.09;;;26.77;46.90
12949;BME280;6539;49.476;8.484;2022-07-23T02:52:48;100386.00;;;26.76;47.07
12949;BME280;6539;49.476;8.484;2022-07-23T02:55:15;100394.47;;;26.76;47.22
12949;BME280;6539;49.476;8.484;2022-07-23T02:57:46;100392.16;;;26.75;46.93
12949;BME280;6539;49.476;8.484;2022-07-23T03:00:12;100396.72;;;26.72;47.13
12949;BME280;6539;49.476;8.484;2022-07-23T03:02:38;100412.88;;;26.66;47.47
12949;BME280;6539;49.476;8.484;2022-07-23T03:05:08;100431.09;;;26.65;47.32
12949;BME280;6539;49.476;8.484;2022-07-23T03:07:34;100450.28;;;26.67;47.53
12949;BME280;6539;49.476;8.484;2022-07-23T03:10:03;100459.00;;;26.74;47.08
12949;BME280;6539;49.476;8.484;2022-07-23T03:12:29;100469.75;;;26.76;47.05
12949;BME280;6539;49.476;8.484;2022-07-23T03:14:57;100469.72;;;26.70;47.37
12949;BME280;6539;49.476;8.484;2022-07-23T03:17:25;100462.56;;;26.64;47.30
12949;BME280;6539;49.476;8.484;2022-07-23T03:19:53;100449.03;;;26.57;48.09
12949;BME280;6539;49.476;8.484;2022-07-23T03:22:19;100447.50;;;26.50;48.08
12949;BME280;6539;49.476;8.484;2022-07-23T03:24:47;100461.09;;;26.46;48.62
12949;BME280;6539;49.476;8.484;2022-07-23T03:27:26;100466.94;;;26.42;48.83
12949;BME280;6539;49.476;8.484;2022-07-23T03:29:58;100455.72;;;26.37;49.03
12949;BME280;6539;49.476;8.484;2022-07-23T03:32:30;100461.84;;;26.41;48.99
12949;BME280;6539;49.476;8.484;2022-07-23T03:34:57;100456.22;;;26.41;48.92
12949;BME280;6539;49.476;8.484;2022-07-23T03:37:24;100458.78;;;26.39;49.13
12949;BME280;6539;49.476;8.484;2022-07-23T03:39:52;100456.97;;;26.41;49.11
12949;BME280;6539;49.476;8.484;2022-07-23T03:42:18;100454.66;;;26.40;49.13
12949;BME280;6539;49.476;8.484;2022-07-23T03:44:44;100456.97;;;26.36;49.45
12949;BME280;6539;49.476;8.484;2022-07-23T03:47:12;100445.47;;;26.34;49.44
12949;BME280;6539;49.476;8.484;2022-07-23T03:49:38;100440.88;;;26.31;49.55
12949;BME280;6539;49.476;8.484;2022-07-23T03:52:04;100429.06;;;26.27;49.50
12949;BME280;6539;49.476;8.484;2022-07-23T03:54:35;100429.34;;;26.23;49.93
12949;BME280;6539;49.476;8.484;2022-07-23T03:57:00;100434.22;;;26.17;49.98
12949;BME280;6539;49.476;8.484;2022-07-23T03:59:29;100449.03;;;26.07;50.48
12949;BME280;6539;49.476;8.484;2022-07-23T04:01:55;100463.59;;;26.05;50.58
12949;BME280;6539;49.476;8.484;2022-07-23T04:04:21;100456.22;;;26.13;50.30
12949;BME280;6539;49.476;8.484;2022-07-23T04:06:47;100450.84;;;26.15;50.85
12949;BME280;6539;49.476;8.484;2022-07-23T04:09:15;100455.19;;;26.11;51.60
12949;BME280;6539;49.476;8.484;2022-07-23T04:11:41;100467.44;;;26.08;51.98
12949;BME280;6539;49.476;8.484;2022-07-23T04:14:09;100478.19;;;26.04;52.40
12949;BME280;6539;49.476;8.484;2022-07-23T04:16:38;100505.28;;;25.96;52.62
12949;BME280;6539;49.476;8.484;2022-07-23T04:19:06;100512.19;;;25.95;52.86
12949;BME280;6539;49.476;8.484;2022-07-23T04:21:31;100513.00;;;26.01;52.18
12949;BME280;6539;49.476;8.484;2022-07-23T04:23:57;100526.75;;;25.99;52.45
12949;BME280;6539;49.476;8.484;2022-07-23T04:26:25;100533.47;;;26.07;52.08
12949;BME280;6539;49.476;8.484;2022-07-23T04:28:51;100539.13;;;26.12;52.42
12949;BME280;6539;49.476;8.484;2022-07-23T04:31:21;100529.16;;;26.11;52.60
12949;BME280;6539;49.476;8.484;2022-07-23T04:33:49;100538.84;;;26.10;52.85
12949;BME280;6539;49.476;8.484;2022-07-23T04:36:17;100535.53;;;26.12;52.64
12949;BME280;6539;49.476;8.484;2022-07-23T04:38:45;100544.22;;;26.14;52.55
12949;BME280;6539;49.476;8.484;2022-07-23T04:41:11;100536.81;;;26.16;52.20
12949;BME280;6539;49.476;8.484;2022-07-23T04:43:39;100540.66;;;26.19;52.33
12949;BME280;6539;49.476;8.484;2022-07-23T04:46:05;100538.38;;;26.17;52.94
12949;BME280;6539;49.476;8.484;2022-07-23T04:48:31;100544.75;;;26.18;53.71
12949;BME280;6539;49.476;8.484;2022-07-23T04:50:57;100545.47;;;26.07;54.58
12949;BME280;6539;49.476;8.484;2022-07-23T04:53:23;100545.97;;;26.00;55.07
12949;BME280;6539;49.476;8.484;2022-07-23T04:55:49;100550.81;;;26.00;55.47
12949;BME280;6539;49.476;8.484;2022-07-23T04:58:15;100546.22;;;25.97;56.60
12949;BME280;6539;49.476;8.484;2022-07-23T05:00:41;100562.56;;;25.93;57.16
12949;BME280;6539;49.476;8.484;2022-07-23T05:03:06;100580.22;;;25.88;57.23
12949;BME280;6539;49.476;8.484;2022-07-23T05:05:32;100588.63;;;25.82;57.45
12949;BME280;6539;49.476;8.484;2022-07-23T05:07:58;100588.66;;;25.88;57.56
12949;BME280;6539;49.476;8.484;2022-07-23T05:10:24;100572.81;;;25.96;57.79
12949;BME280;6539;49.476;8.484;2022-07-23T05:12:50;100565.13;;;25.91;58.19
12949;BME280;6539;49.476;8.484;2022-07-23T05:15:18;100574.34;;;25.86;58.73
12949;BME280;6539;49.476;8.484;2022-07-23T05:17:46;100588.63;;;25.77;58.99
12949;BME280;6539;49.476;8.484;2022-07-23T05:20:12;100596.03;;;25.74;58.97
12949;BME280;6539;49.476;8.484;2022-07-23T05:22:42;100577.06;;;25.69;59.67
12949;BME280;6539;49.476;8.484;2022-07-23T05:25:12;100581.16;;;25.68;59.81
12949;BME280;6539;49.476;8.484;2022-07-23T05:27:38;100570.38;;;25.55;60.32
12949;BME280;6539;49.476;8.484;2022-07-23T05:30:04;100570.06;;;25.42;60.84
12949;BME280;6539;49.476;8.484;2022-07-23T05:32:32;100560.78;;;25.36;61.35
12949;BME280;6539;49.476;8.484;2022-07-23T05:35:07;100552.31;;;25.31;61.42
12949;BME280;6539;49.476;8.484;2022-07-23T05:37:33;100555.13;;;25.25;61.73
12949;BME280;6539;49.476;8.484;2022-07-23T05:40:09;100553.06;;;25.26;61.84
12949;BME280;6539;49.476;8.484;2022-07-23T05:42:37;100536.97;;;25.26;62.17
12949;BME280;6539;49.476;8.484;2022-07-23T05:45:07;100537.69;;;25.21;62.17
12949;BME280;6539;49.476;8.484;2022-07-23T05:47:49;100546.09;;;25.10;62.16
12949;BME280;6539;49.476;8.484;2022-07-23T05:50:16;100556.56;;;25.10;62.34
12949;BME280;6539;49.476;8.484;2022-07-23T05:52:44;100562.94;;;25.10;62.93
12949;BME280;6539;49.476;8.484;2022-07-23T05:55:12;100560.94;;;25.16;62.90
12949;BME280;6539;49.476;8.484;2022-07-23T05:57:41;100553.03;;;25.20;62.34
12949;BME280;6539;49.476;8.484;2022-07-23T06:00:09;100556.41;;;25.30;61.97
12949;BME280;6539;49.476;8.484;2022-07-23T06:02:37;100554.91;;;25.34;62.21
12949;BME280;6539;49.476;8.484;2022-07-23T06:05:04;100560.78;;;25.36;61.98
12949;BME280;6539;49.476;8.484;2022-07-23T06:07:33;100556.53;;;25.46;61.59
12949;BME280;6539;49.476;8.484;2022-07-23T06:10:00;100567.28;;;25.53;61.25
12949;BME280;6539;49.476;8.484;2022-07-23T06:12:26;100582.91;;;25.60;61.34
12949;BME280;6539;49.476;8.484;2022-07-23T06:14:52;100598.53;;;25.66;61.01
12949;BME280;6539;49.476;8.484;2022-07-23T06:17:18;100605.41;;;25.60;60.30
12949;BME280;6539;49.476;8.484;2022-07-23T06:19:47;100604.13;;;25.55;60.24
12949;BME280;6539;49.476;8.484;2022-07-23T06:22:13;100610.47;;;25.50;61.04
12949;BME280;6539;49.476;8.484;2022-07-23T06:24:39;100615.56;;;25.46;61.01
12949;BME280;6539;49.476;8.484;2022-07-23T06:27:05;100619.44;;;25.49;60.73
12949;BME280;6539;49.476;8.484;2022-07-23T06:29:32;100622.53;;;25.56;61.03
12949;BME280;6539;49.476;8.484;2022-07-23T06:31:58;100625.91;;;25.66;60.48
12949;BME280;6539;49.476;8.484;2022-07-23T06:34:24;100621.03;;;25.66;59.86
12949;BME280;6539;49.476;8.484;2022-07-23T06:36:53;100630.72;;;25.60;59.48
12949;BME280;6539;49.476;8.484;2022-07-23T06:39:21;100645.56;;;25.60;59.97
12949;BME280;6539;49.476;8.484;2022-07-23T06:41:49;100634.69;;;25.85;59.82
12949;BME280;6539;49.476;8.484;2022-07-23T06:44:15;100626.56;;;25.98;58.29
12949;BME280;6539;49.476;8.484;2022-07-23T06:46:41;100617.41;;;26.08;57.80
12949;BME280;6539;49.476;8.484;2022-07-23T06:49:07;100604.81;;;26.04;57.97
12949;BME280;6539;49.476;8.484;2022-07-23T06:51:33;100611.69;;;25.92;59.80
12949;BME280;6539;49.476;8.484;2022-07-23T06:53:59;100610.91;;;25.91;59.81
12949;BME280;6539;49.476;8.484;2022-07-23T06:56:25;100603.47;;;25.88;58.96
12949;BME280;6539;49.476;8.484;2022-07-23T06:58:50;100598.09;;;25.85;59.19
12949;BME280;6539;49.476;8.484;2022-07-23T07:01:18;100597.31;;;25.79;59.58
12949;BME280;6539;49.476;8.484;2022-07-23T07:03:44;100599.59;;;25.75;60.02
12949;BME280;6539;49.476;8.484;2022-07-23T07:06:10;100599.34;;;25.78;60.27
12949;BME280;6539;49.476;8.484;2022-07-23T07:08:41;100602.47;;;25.91;58.98
12949;BME280;6539;49.476;8.484;2022-07-23T07:11:12;100616.59;;;26.02;58.02
12949;BME280;6539;49.476;8.484;2022-07-23T07:13:38;100619.38;;;25.97;58.12
12949;BME280;6539;49.476;8.484;2022-07-23T07:16:04;100626.50;;;25.87;59.23
12949;BME280;6539;49.476;8.484;2022-07-23T07:18:35;100637.69;;;25.76;59.84
12949;BME280;6539;49.476;8.484;2022-07-23T07:21:05;100644.03;;;25.65;61.14
12949;BME280;6539;49.476;8.484;2022-07-23T07:23:33;100642.25;;;25.62;59.56
12949;BME280;6539;49.476;8.484;2022-07-23T07:25:59;100645.53;;;25.55;59.58
12949;BME280;6539;49.476;8.484;2022-07-23T07:28:25;100643.84;;;25.80;59.75
12949;BME280;6539;49.476;8.484;2022-07-23T07:30:51;100646.63;;;26.22;59.02
12949;BME280;6539;49.476;8.484;2022-07-23T07:33:17;100648.25;;;26.67;57.37
12949;BME280;6539;49.476;8.484;2022-07-23T07:35:43;100654.69;;;27.17;56.67
12949;BME280;6539;49.476;8.484;2022-07-23T07:38:11;100658.97;;;27.63;55.12
12949;BME280;6539;49.476;8.484;2022-07-23T07:40:40;100664.53;;;27.96;53.26
12949;BME280;6539;49.476;8.484;2022-07-23T07:43:08;100674.78;;;28.05;52.60
12949;BME280;6539;49.476;8.484;2022-07-23T07:45:33;100668.34;;;28.10;53.39
12949;BME280;6539;49.476;8.484;2022-07-23T07:48:00;100679.78;;;28.34;51.99
12949;BME280;6539;49.476;8.484;2022-07-23T07:50:28;100672.91;;;28.70;50.82
12949;BME280;6539;49.476;8.484;2022-07-23T07:52:54;100681.19;;;28.98;48.63
12949;BME280;6539;49.476;8.484;2022-07-23T07:55:20;100679.25;;;29.17;48.05
12949;BME280;6539;49.476;8.484;2022-07-23T07:57:46;100683.41;;;29.40;46.85
12949;BME280;6539;49.476;8.484;2022-07-23T08:00:14;100679.13;;;29.58;45.06
12949;BME280;6539;49.476;8.484;2022-07-23T08:02:52;100680.25;;;29.73;45.56
12949;BME280;6539;49.476;8.484;2022-07-23T08:05:25;100674.53;;;29.79;44.32
12949;BME280;6539;49.476;8.484;2022-07-23T08:07:51;100678.22;;;29.68;44.55
12949;BME280;6539;49.476;8.484;2022-07-23T08:10:17;100677.28;;;29.36;45.36
12949;BME280;6539;49.476;8.484;2022-07-23T08:12:47;100687.88;;;28.95;46.90
12949;BME280;6539;49.476;8.484;2022-07-23T08:15:19;100680.88;;;28.72;47.33
12949;BME280;6539;49.476;8.484;2022-07-23T08:17:47;100679.66;;;28.61;47.08
12949;BME280;6539;49.476;8.484;2022-07-23T08:20:20;100686.00;;;28.73;47.12
12949;BME280;6539;49.476;8.484;2022-07-23T08:22:57;100694.47;;;28.73;46.12
12949;BME280;6539;49.476;8.484;2022-07-23T08:25:29;100695.69;;;28.83;46.58
12949;BME280;6539;49.476;8.484;2022-07-23T08:28:00;100694.78;;;29.05;46.37
12949;BME280;6539;49.476;8.484;2022-07-23T08:30:29;100698.44;;;29.29;46.58
12949;BME280;6539;49.476;8.484;2022-07-23T08:33:01;100695.78;;;29.61;45.54
12949;BME280;6539;49.476;8.484;2022-07-23T08:35:38;100702.56;;;29.82;44.15
12949;BME280;6539;49.476;8.484;2022-07-23T08:38:09;100697.09;;;30.08;43.74
12949;BME280;6539;49.476;8.484;2022-07-23T08:40:45;100692.16;;;29.90;43.84
12949;BME280;6539;49.476;8.484;2022-07-23T08:43:14;100698.38;;;29.89;43.28
12949;BME280;6539;49.476;8.484;2022-07-23T08:45:44;100705.97;;;29.99;44.09
12949;BME280;6539;49.476;8.484;2022-07-23T08:48:26;100702.91;;;29.97;43.25
12949;BME280;6539;49.476;8.484;2022-07-23T08:50:55;100702.06;;;30.02;42.99
12949;BME280;6539;49.476;8.484;2022-07-23T08:53:26;100709.41;;;30.35;44.09
12949;BME280;6539;49.476;8.484;2022-07-23T08:55:56;100713.09;;;30.49;42.70
12949;BME280;6539;49.476;8.484;2022-07-23T08:58:24;100704.25;;;30.52;41.76
12949;BME280;6539;49.476;8.484;2022-07-23T09:00:51;100700.53;;;30.44;42.83
12949;BME280;6539;49.476;8.484;2022-07-23T09:03:20;100705.34;;;30.49;42.35
12949;BME280;6539;49.476;8.484;2022-07-23T09:05:48;100701.13;;;30.56;41.92
12949;BME280;6539;49.476;8.484;2022-07-23T09:13:40;100700.72;;;31.02;41.70
12949;BME280;6539;49.476;8.484;2022-07-23T09:16:30;100707.63;;;30.69;41.40
12949;BME280;6539;49.476;8.484;2022-07-23T09:21:28;100693.25;;;30.49;42.66
12949;BME280;6539;49.476;8.484;2022-07-23T09:24:08;100689.72;;;30.61;42.31
12949;BME280;6539;49.476;8.484;2022-07-23T09:29:05;100688.28;;;31.05;42.69
12949;BME280;6539;49.476;8.484;2022-07-23T09:31:53;100686.03;;;31.30;42.30
12949;BME280;6539;49.476;8.484;2022-07-23T09:36:53;100691.78;;;31.43;42.54
12949;BME280;6539;49.476;8.484;2022-07-23T09:39:33;100687.31;;;31.47;41.79
12949;BME280;6539;49.476;8.484;2022-07-23T09:42:25;100698.03;;;31.23;40.91
12949;BME280;6539;49.476;8.484;2022-07-23T09:44:58;100689.47;;;30.97;41.07
12949;BME280;6539;49.476;8.484;2022-07-23T09:47:31;100691.22;;;30.81;42.80
12949;BME280;6539;49.476;8.484;2022-07-23T09:50:09;100694.59;;;30.98;41.20
12949;BME280;6539;49.476;8.484;2022-07-23T09:52:45;100698.81;;;30.73;41.61
12949;BME280;6539;49.476;8.484;2022-07-23T09:55:16;100697.50;;;30.74;41.34
12949;BME280;6539;49.476;8.484;2022-07-23T09:57:47;100709.00;;;30.26;43.21
12949;BME280;6539;49.476;8.484;2022-07-23T10:00:18;100699.44;;;29.86;43.23
12949;BME280;6539;49.476;8.484;2022-07-23T10:02:46;100691.03;;;29.99;43.40
12949;BME280;6539;49.476;8.484;2022-07-23T10:05:13;100690.44;;;30.06;43.08
12949;BME280;6539;49.476;8.484;2022-07-23T10:07:41;100685.41;;;29.93;45.16
12949;BME280;6539;49.476;8.484;2022-07-23T10:10:10;100687.06;;;30.07;43.99
12949;BME280;6539;49.476;8.484;2022-07-23T10:12:37;100694.81;;;30.26;43.62
12949;BME280;6539;49.476;8.484;2022-07-23T10:15:21;100689.06;;;30.12;43.27
12949;BME280;6539;49.476;8.484;2022-07-23T10:17:48;100699.44;;;29.86;42.93
12949;BME280;6539;49.476;8.484;2022-07-23T10:20:14;100686.88;;;29.81;45.37
12949;BME280;6539;49.476;8.484;2022-07-23T10:26:03;100681.16;;;30.05;43.37
12949;BME280;6539;49.476;8.484;2022-07-23T10:32:04;100672.53;;;29.50;44.69
12949;BME280;6539;49.476;8.484;2022-07-23T10:34:58;100676.22;;;29.63;43.64
12949;BME280;6539;49.476;8.484;2022-07-23T10:37:36;100675.00;;;29.83;44.10
12949;BME280;6539;49.476;8.484;2022-07-23T10:42:40;100678.53;;;30.32;43.56
12949;BME280;6539;49.476;8.484;2022-07-23T10:47:51;100667.88;;;30.75;41.95
12949;BME280;6539;49.476;8.484;2022-07-23T10:50:29;100675.91;;;30.90;42.80
12949;BME280;6539;49.476;8.484;2022-07-23T10:58:03;100685.00;;;31.01;41.50
12949;BME280;6539;49.476;8.484;2022-07-23T11:00:34;100672.56;;;31.04;41.19
12949;BME280;6539;49.476;8.484;2022-07-23T11:03:30;100681.78;;;30.92;41.21
12949;BME280;6539;49.476;8.484;2022-07-23T11:06:04;100680.13;;;31.15;41.94
12949;BME280;6539;49.476;8.484;2022-07-23T11:08:33;100670.88;;;31.27;41.39
12949;BME280;6539;49.476;8.484;2022-07-23T11:32:05;100674.56;;;30.91;40.73
12949;BME280;6539;49.476;8.484;2022-07-23T11:37:08;100661.63;;;30.95;40.13
12949;BME280;6539;49.476;8.484;2022-07-23T11:39:38;100658.81;;;31.08;41.26
12949;BME280;6539;49.476;8.484;2022-07-23T11:42:07;100657.22;;;31.26;40.00
12949;BME280;6539;49.476;8.484;2022-07-23T11:44:35;100652.13;;;31.37;39.80
12949;BME280;6539;49.476;8.484;2022-07-23T11:47:10;100661.47;;;31.19;38.93
12949;BME280;6539;49.476;8.484;2022-07-23T11:49:41;100655.50;;;30.91;39.21
12949;BME280;6539;49.476;8.484;2022-07-23T11:52:23;100653.75;;;30.88;39.88
12949;BME280;6539;49.476;8.484;2022-07-23T11:54:52;100651.38;;;30.92;39.71
12949;BME280;6539;49.476;8.484;2022-07-23T11:57:24;100643.53;;;30.98;39.47
12949;BME280;6539;49.476;8.484;2022-07-23T12:02:28;100650.75;;;30.80;39.10
12949;BME280;6539;49.476;8.484;2022-07-23T12:04:56;100644.66;;;30.58;40.06
12949;BME280;6539;49.476;8.484;2022-07-23T12:10:08;100646.34;;;30.29;40.78
12949;BME280;6539;49.476;8.484;2022-07-23T12:12:49;100641.22;;;30.28;41.13
12949;BME280;6539;49.476;8.484;2022-07-23T12:15:19;100642.28;;;30.25;40.65
12949;BME280;6539;49.476;8.484;2022-07-23T12:17:48;100634.09;;;30.21;40.57
12949;BME280;6539;49.476;8.484;2022-07-23T12:20:28;100635.72;;;30.17;41.24
12949;BME280;6539;49.476;8.484;2022-07-23T12:23:03;100630.03;;;30.17;41.62
12949;BME280;6539;49.476;8.484;2022-07-23T12:25:37;100633.31;;;30.21;41.51
12949;BME280;6539;49.476;8.484;2022-07-23T12:30:50;100634.50;;;30.31;42.61
12949;BME280;6539;49.476;8.484;2022-07-23T12:33:39;100649.19;;;30.29;42.27
12949;BME280;6539;49.476;8.484;2022-07-23T12:36:08;100658.00;;;30.26;42.30
12949;BME280;6539;49.476;8.484;2022-07-23T12:38:57;100654.53;;;30.14;43.58
12949;BME280;6539;49.476;8.484;2022-07-23T12:41:27;100658.50;;;29.87;46.73
12949;BME280;6539;49.476;8.484;2022-07-23T12:43:55;100662.97;;;29.77;48.14
12949;BME280;6539;49.476;8.484;2022-07-23T12:46:22;100661.59;;;29.59;50.00
12949;BME280;6539;49.476;8.484;2022-07-23T12:53:53;100648.59;;;29.75;45.50
12949;BME280;6539;49.476;8.484;2022-07-23T12:56:26;100651.41;;;29.51;44.31
12949;BME280;6539;49.476;8.484;2022-07-23T12:59:09;100649.44;;;29.64;44.83
12949;BME280;6539;49.476;8.484;2022-07-23T13:01:38;100649.34;;;29.75;44.11
12949;BME280;6539;49.476;8.484;2022-07-23T13:04:12;100649.22;;;29.62;44.68
12949;BME280;6539;49.476;8.484;2022-07-23T13:06:54;100642.16;;;29.74;44.39
12949;BME280;6539;49.476;8.484;2022-07-23T13:09:29;100640.09;;;29.93;43.72
12949;BME280;6539;49.476;8.484;2022-07-23T13:11:56;100642.56;;;30.02;43.04
12949;BME280;6539;49.476;8.484;2022-07-23T13:14:24;100644.50;;;29.94;41.65
12949;BME280;6539;49.476;8.484;2022-07-23T13:16:52;100646.50;;;29.99;42.50
12949;BME280;6539;49.476;8.484;2022-07-23T13:19:21;100645.88;;;30.06;43.54
12949;BME280;6539;49.476;8.484;2022-07-23T13:21:47;100641.88;;;30.15;43.83
12949;BME280;6539;49.476;8.484;2022-07-23T13:24:16;100646.41;;;30.24;43.33
12949;BME280;6539;49.476;8.484;2022-07-23T13:26:42;100643.13;;;30.01;42.21
12949;BME280;6539;49.476;8.484;2022-07-23T13:29:08;100641.00;;;29.83;42.88
12949;BME280;6539;49.476;8.484;2022-07-23T13:31:39;100636.50;;;29.74;43.56
12949;BME280;6539;49.476;8.484;2022-07-23T13:34:07;100636.50;;;29.74;43.00
12949;BME280;6539;49.476;8.484;2022-07-23T13:36:36;100641.78;;;29.83;42.76
12949;BME280;6539;49.476;8.484;2022-07-23T13:39:05;100636.81;;;29.89;42.09
12949;BME280;6539;49.476;8.484;2022-07-23T13:41:31;100640.97;;;29.88;41.73
12949;BME280;6539;49.476;8.484;2022-07-23T13:43:57;100634.84;;;30.03;41.86
12949;BME280;6539;49.476;8.484;2022-07-23T13:46:23;100641.75;;;30.07;41.42
12949;BME280;6539;49.476;8.484;2022-07-23T13:48:51;100636.78;;;29.95;41.33
12949;BME280;6539;49.476;8.484;2022-07-23T13:51:20;100630.56;;;29.96;41.61
12949;BME280;6539;49.476;8.484;2022-07-23T13:53:46;100636.09;;;30.07;41.60
12949;BME280;6539;49.476;8.484;2022-07-23T13:56:14;100637.63;;;30.27;41.70
12949;BME280;6539;49.476;8.484;2022-07-23T13:58:42;100638.53;;;30.54;41.16
12949;BME280;6539;49.476;8.484;2022-07-23T14:01:13;100632.75;;;30.78;41.05
12949;BME280;6539;49.476;8.484;2022-07-23T14:03:41;100632.28;;;30.93;40.00
12949;BME280;6539;49.476;8.484;2022-07-23T14:06:06;100630.88;;;31.12;40.07
12949;BME280;6539;49.476;8.484;2022-07-23T14:08:35;100618.91;;;31.19;38.65
12949;BME280;6539;49.476;8.484;2022-07-23T14:11:02;100609.53;;;31.24;38.73
12949;BME280;6539;49.476;8.484;2022-07-23T14:13:31;100617.16;;;31.29;38.74
12949;BME280;6539;49.476;8.484;2022-07-23T14:15:59;100621.84;;;31.14;37.69